THY3ED LTFM-LKPR
Flight info
| Callsign | THY3ED |
|---|---|
| Flight time | 2h 4m |
| Altitude | 38000 |
| Route | TUDBU1D/35L TUDBU Q26 ETUBA DCT APROB DCT VIKBI DCT PATAK DCT LALES DCT TUMKA DCT VLM |
| Aircraft | B738/M-SDE2E3FGHIRWXY/LB1 |
Departure
| Time | 2026-05-06 17:10 |
|---|---|
| Airport | İstanbul Airport (LTFM) |
Arrival
| Time | 2026-05-06 19:15 |
|---|---|
| Airport | Václav Havel Airport Prague (LKPR) |
| Time | Latitude | Longitude | Altitude | Speed | Heading |
|---|---|---|---|---|---|
| 2026-05-06 16:40 | 41.25434 | 28.73643 | 333 ft | 0 kts | 89° |
| 2026-05-06 16:58 | 41.25434 | 28.73633 | 333 ft | 4 kts | 89° |
| 2026-05-06 16:58 | 41.25434 | 28.73605 | 332 ft | 4 kts | 77° |
| 2026-05-06 16:59 | 41.25422 | 28.73584 | 328 ft | 4 kts | 4° |
| 2026-05-06 16:59 | 41.25399 | 28.73584 | 329 ft | 2 kts | 359° |
| 2026-05-06 16:59 | 41.25398 | 28.73584 | 329 ft | 0 kts | 359° |
| 2026-05-06 17:02 | 41.25404 | 28.73584 | 329 ft | 3 kts | 358° |
| 2026-05-06 17:02 | 41.25440 | 28.73583 | 329 ft | 8 kts | 360° |
| 2026-05-06 17:03 | 41.25505 | 28.73578 | 329 ft | 10 kts | 353° |
| 2026-05-06 17:03 | 41.25574 | 28.73578 | 332 ft | 10 kts | 1° |
| 2026-05-06 17:03 | 41.25613 | 28.73544 | 332 ft | 7 kts | 275° |
| 2026-05-06 17:03 | 41.25611 | 28.73479 | 333 ft | 7 kts | 269° |
| 2026-05-06 17:04 | 41.25610 | 28.73389 | 333 ft | 12 kts | 271° |
| 2026-05-06 17:04 | 41.25609 | 28.73285 | 333 ft | 8 kts | 268° |
| 2026-05-06 17:04 | 41.25641 | 28.73250 | 332 ft | 8 kts | 1° |
| 2026-05-06 17:04 | 41.25719 | 28.73247 | 332 ft | 12 kts | 359° |
| 2026-05-06 17:05 | 41.25800 | 28.73247 | 331 ft | 12 kts | 360° |
| 2026-05-06 17:05 | 41.25879 | 28.73245 | 329 ft | 11 kts | 359° |
| 2026-05-06 17:05 | 41.25960 | 28.73243 | 331 ft | 15 kts | 359° |
| 2026-05-06 17:05 | 41.26071 | 28.73241 | 332 ft | 16 kts | 359° |
| 2026-05-06 17:06 | 41.26160 | 28.73238 | 333 ft | 7 kts | 359° |
| 2026-05-06 17:06 | 41.26205 | 28.73229 | 330 ft | 8 kts | 326° |
| 2026-05-06 17:06 | 41.26217 | 28.73137 | 332 ft | 12 kts | 270° |
| 2026-05-06 17:06 | 41.26216 | 28.73009 | 333 ft | 15 kts | 269° |
| 2026-05-06 17:07 | 41.26214 | 28.72860 | 333 ft | 17 kts | 268° |
| 2026-05-06 17:07 | 41.26211 | 28.72710 | 333 ft | 16 kts | 269° |
| 2026-05-06 17:07 | 41.26210 | 28.72579 | 329 ft | 7 kts | 270° |
| 2026-05-06 17:07 | 41.26226 | 28.72527 | 331 ft | 7 kts | 341° |
| 2026-05-06 17:08 | 41.26238 | 28.72526 | 332 ft | 0 kts | 358° |
| 2026-05-06 17:10 | 41.26323 | 28.72524 | 329 ft | 41 kts | 359° |
| 2026-05-06 17:10 | 41.26855 | 28.72512 | 333 ft | 110 kts | 358° |
| 2026-05-06 17:10 | 41.27816 | 28.72487 | 363 ft | 162 kts | 1° |
| 2026-05-06 17:10 | 41.28977 | 28.72455 | 991 ft | 165 kts | 1° |
| 2026-05-06 17:11 | 41.30150 | 28.72452 | 1690 ft | 172 kts | 0° |
| 2026-05-06 17:11 | 41.31353 | 28.72467 | 2412 ft | 177 kts | 360° |
| 2026-05-06 17:11 | 41.32694 | 28.72481 | 2721 ft | 205 kts | 359° |
| 2026-05-06 17:11 | 41.34204 | 28.72496 | 2917 ft | 228 kts | 359° |
| 2026-05-06 17:12 | 41.35870 | 28.72513 | 3162 ft | 249 kts | 359° |
| 2026-05-06 17:12 | 41.37635 | 28.72525 | 3822 ft | 256 kts | 356° |
| 2026-05-06 17:12 | 41.39322 | 28.71917 | 4742 ft | 251 kts | 333° |
| 2026-05-06 17:12 | 41.40879 | 28.70894 | 5664 ft | 250 kts | 333° |
| 2026-05-06 17:13 | 41.42450 | 28.69874 | 6467 ft | 252 kts | 334° |
| 2026-05-06 17:13 | 41.44032 | 28.68852 | 7232 ft | 254 kts | 334° |
| 2026-05-06 17:13 | 41.45638 | 28.67818 | 7963 ft | 260 kts | 334° |
| 2026-05-06 17:13 | 41.47288 | 28.66759 | 8643 ft | 264 kts | 334° |
| 2026-05-06 17:14 | 41.48944 | 28.65696 | 9470 ft | 265 kts | 335° |
| 2026-05-06 17:14 | 41.50614 | 28.64626 | 10218 ft | 268 kts | 335° |
| 2026-05-06 17:14 | 41.52346 | 28.63517 | 10523 ft | 288 kts | 335° |
| 2026-05-06 17:14 | 41.54221 | 28.62316 | 10696 ft | 310 kts | 335° |
| 2026-05-06 17:15 | 41.56209 | 28.61042 | 11089 ft | 322 kts | 335° |
| 2026-05-06 17:15 | 41.58115 | 28.59432 | 11716 ft | 328 kts | 318° |
| 2026-05-06 17:15 | 41.59669 | 28.57194 | 12478 ft | 330 kts | 314° |
| 2026-05-06 17:15 | 41.61202 | 28.54877 | 13182 ft | 335 kts | 314° |
| 2026-05-06 17:16 | 41.62763 | 28.52546 | 13887 ft | 339 kts | 314° |
| 2026-05-06 17:16 | 41.64354 | 28.50198 | 14558 ft | 342 kts | 314° |
| 2026-05-06 17:16 | 41.65962 | 28.47836 | 15266 ft | 344 kts | 314° |
| 2026-05-06 17:16 | 41.67465 | 28.45322 | 15941 ft | 351 kts | 302° |
| 2026-05-06 17:17 | 41.68497 | 28.42331 | 16643 ft | 356 kts | 296° |
| 2026-05-06 17:17 | 41.69469 | 28.39265 | 17316 ft | 360 kts | 296° |
| 2026-05-06 17:17 | 41.70450 | 28.36169 | 17969 ft | 364 kts | 296° |
| 2026-05-06 17:17 | 41.71450 | 28.33040 | 18617 ft | 366 kts | 296° |
| 2026-05-06 17:18 | 41.72462 | 28.29901 | 19209 ft | 369 kts | 297° |
| 2026-05-06 17:18 | 41.73487 | 28.26740 | 19799 ft | 371 kts | 297° |
| 2026-05-06 17:18 | 41.74521 | 28.23560 | 20385 ft | 374 kts | 297° |
| 2026-05-06 17:18 | 41.75561 | 28.20360 | 20959 ft | 376 kts | 297° |
| 2026-05-06 17:19 | 41.76611 | 28.17131 | 21523 ft | 379 kts | 297° |
| 2026-05-06 17:19 | 41.77666 | 28.13880 | 22079 ft | 382 kts | 297° |
| 2026-05-06 17:19 | 41.78728 | 28.10604 | 22626 ft | 385 kts | 297° |
| 2026-05-06 17:19 | 41.79904 | 28.07389 | 23117 ft | 385 kts | 306° |
| 2026-05-06 17:20 | 41.81479 | 28.04463 | 23386 ft | 392 kts | 310° |
| 2026-05-06 17:20 | 41.83163 | 28.01577 | 23475 ft | 404 kts | 311° |
| 2026-05-06 17:20 | 41.84950 | 27.98535 | 23561 ft | 416 kts | 311° |
| 2026-05-06 17:20 | 41.86727 | 27.95468 | 23638 ft | 427 kts | 310° |
| 2026-05-06 17:21 | 41.88546 | 27.92274 | 23700 ft | 436 kts | 310° |
| 2026-05-06 17:21 | 41.90394 | 27.88990 | 23792 ft | 444 kts | 309° |
| 2026-05-06 17:21 | 41.92253 | 27.85665 | 24047 ft | 447 kts | 309° |
| 2026-05-06 17:21 | 41.94119 | 27.82324 | 24425 ft | 445 kts | 310° |
| 2026-05-06 17:22 | 41.95973 | 27.79003 | 24829 ft | 444 kts | 310° |
| 2026-05-06 17:22 | 41.97899 | 27.75759 | 25081 ft | 445 kts | 314° |
| 2026-05-06 17:22 | 42.00020 | 27.72713 | 25319 ft | 447 kts | 317° |
| 2026-05-06 17:22 | 42.02227 | 27.69760 | 25595 ft | 448 kts | 318° |
| 2026-05-06 17:23 | 42.04458 | 27.66832 | 25872 ft | 449 kts | 318° |
| 2026-05-06 17:23 | 42.06686 | 27.63892 | 26079 ft | 450 kts | 317° |
| 2026-05-06 17:23 | 42.08910 | 27.60919 | 26306 ft | 450 kts | 317° |
| 2026-05-06 17:23 | 42.11116 | 27.57933 | 26626 ft | 449 kts | 317° |
| 2026-05-06 17:24 | 42.13299 | 27.54949 | 26952 ft | 447 kts | 316° |
| 2026-05-06 17:24 | 42.15472 | 27.51961 | 27262 ft | 447 kts | 316° |
| 2026-05-06 17:24 | 42.17646 | 27.48962 | 27482 ft | 447 kts | 316° |
| 2026-05-06 17:24 | 42.19821 | 27.45957 | 27781 ft | 446 kts | 316° |
| 2026-05-06 17:25 | 42.21983 | 27.42966 | 28158 ft | 444 kts | 316° |
| 2026-05-06 17:25 | 42.24132 | 27.39990 | 28543 ft | 442 kts | 316° |
| 2026-05-06 17:25 | 42.26274 | 27.37021 | 28853 ft | 441 kts | 316° |
| 2026-05-06 17:25 | 42.28415 | 27.34054 | 29169 ft | 440 kts | 316° |
| 2026-05-06 17:26 | 42.30546 | 27.31096 | 29519 ft | 439 kts | 316° |
| 2026-05-06 17:26 | 42.32674 | 27.28140 | 29859 ft | 438 kts | 316° |
| 2026-05-06 17:26 | 42.34795 | 27.25191 | 30203 ft | 437 kts | 316° |
| 2026-05-06 17:26 | 42.36907 | 27.22251 | 30496 ft | 435 kts | 316° |
| 2026-05-06 17:27 | 42.39011 | 27.19319 | 30813 ft | 433 kts | 316° |
| 2026-05-06 17:27 | 42.41103 | 27.16401 | 31096 ft | 431 kts | 316° |
| 2026-05-06 17:27 | 42.43173 | 27.13509 | 31563 ft | 425 kts | 316° |
| 2026-05-06 17:27 | 42.45224 | 27.10643 | 31877 ft | 424 kts | 316° |
| 2026-05-06 17:28 | 42.47285 | 27.07760 | 32011 ft | 427 kts | 316° |
| 2026-05-06 17:28 | 42.49356 | 27.04862 | 32205 ft | 428 kts | 316° |
| 2026-05-06 17:28 | 42.51420 | 27.01968 | 32511 ft | 425 kts | 316° |
| 2026-05-06 17:28 | 42.53467 | 26.99096 | 32861 ft | 422 kts | 316° |
| 2026-05-06 17:29 | 42.55503 | 26.96234 | 33187 ft | 421 kts | 316° |
| 2026-05-06 17:29 | 42.57531 | 26.93382 | 33431 ft | 419 kts | 316° |
| 2026-05-06 17:29 | 42.59548 | 26.90543 | 33778 ft | 416 kts | 316° |
| 2026-05-06 17:29 | 42.61553 | 26.87718 | 34057 ft | 415 kts | 316° |
| 2026-05-06 17:30 | 42.63555 | 26.84895 | 34250 ft | 415 kts | 316° |
| 2026-05-06 17:30 | 42.65559 | 26.82067 | 34388 ft | 416 kts | 316° |
| 2026-05-06 17:30 | 42.67567 | 26.79229 | 34537 ft | 417 kts | 316° |
| 2026-05-06 17:30 | 42.69576 | 26.76388 | 34713 ft | 417 kts | 316° |
| 2026-05-06 17:31 | 42.71583 | 26.73546 | 34890 ft | 417 kts | 316° |
| 2026-05-06 17:31 | 42.73563 | 26.70739 | 35030 ft | 417 kts | 315° |
| 2026-05-06 17:31 | 42.75572 | 26.67887 | 35239 ft | 417 kts | 316° |
| 2026-05-06 17:31 | 42.77575 | 26.65043 | 35418 ft | 417 kts | 315° |
| 2026-05-06 17:32 | 42.79581 | 26.62192 | 35590 ft | 417 kts | 315° |
| 2026-05-06 17:32 | 42.81587 | 26.59339 | 35752 ft | 417 kts | 316° |
| 2026-05-06 17:32 | 42.83623 | 26.56524 | 35915 ft | 417 kts | 317° |
| 2026-05-06 17:32 | 42.85685 | 26.53760 | 36016 ft | 417 kts | 317° |
| 2026-05-06 17:33 | 42.87774 | 26.50991 | 36037 ft | 419 kts | 317° |
| 2026-05-06 17:33 | 42.91951 | 26.45446 | 36018 ft | 419 kts | 317° |
| 2026-05-06 17:34 | 42.96112 | 26.39881 | 36027 ft | 419 kts | 317° |
| 2026-05-06 17:34 | 43.00259 | 26.34302 | 36023 ft | 419 kts | 317° |
| 2026-05-06 17:35 | 43.04403 | 26.28709 | 36016 ft | 419 kts | 317° |
| 2026-05-06 17:35 | 43.08559 | 26.23090 | 35998 ft | 420 kts | 316° |
| 2026-05-06 17:36 | 43.14804 | 26.14625 | 35993 ft | 422 kts | 316° |
| 2026-05-06 17:36 | 43.18976 | 26.08955 | 35985 ft | 423 kts | 316° |
| 2026-05-06 17:37 | 43.23151 | 26.03269 | 35983 ft | 424 kts | 316° |
| 2026-05-06 17:37 | 43.27329 | 25.97568 | 35962 ft | 424 kts | 316° |
| 2026-05-06 17:38 | 43.31509 | 25.91853 | 35977 ft | 424 kts | 316° |
| 2026-05-06 17:38 | 43.35687 | 25.86128 | 35984 ft | 424 kts | 316° |
| 2026-05-06 17:39 | 43.39864 | 25.80393 | 35976 ft | 425 kts | 316° |
| 2026-05-06 17:39 | 43.44043 | 25.74643 | 35974 ft | 425 kts | 316° |
| 2026-05-06 17:40 | 43.48213 | 25.68894 | 35973 ft | 424 kts | 316° |
| 2026-05-06 17:40 | 43.52380 | 25.63136 | 35967 ft | 424 kts | 316° |
| 2026-05-06 17:41 | 43.56543 | 25.57374 | 35965 ft | 424 kts | 316° |
| 2026-05-06 17:41 | 43.60701 | 25.51605 | 35958 ft | 424 kts | 315° |
| 2026-05-06 17:42 | 43.64857 | 25.45827 | 35978 ft | 424 kts | 316° |
| 2026-05-06 17:42 | 43.69017 | 25.40032 | 35967 ft | 425 kts | 315° |
| 2026-05-06 17:43 | 43.73147 | 25.34266 | 35957 ft | 425 kts | 315° |
| 2026-05-06 17:43 | 43.77300 | 25.28456 | 35952 ft | 425 kts | 315° |
| 2026-05-06 17:44 | 43.81454 | 25.22633 | 35961 ft | 425 kts | 315° |
| 2026-05-06 17:44 | 43.85610 | 25.16793 | 35960 ft | 426 kts | 315° |
| 2026-05-06 17:45 | 43.89769 | 25.10938 | 35964 ft | 426 kts | 315° |
| 2026-05-06 17:45 | 43.93221 | 25.06069 | 35958 ft | 426 kts | 315° |
| 2026-05-06 17:46 | 43.97348 | 25.00253 | 35958 ft | 426 kts | 316° |
| 2026-05-06 17:46 | 44.01705 | 24.94661 | 35964 ft | 426 kts | 317° |
| 2026-05-06 17:47 | 44.06049 | 24.89050 | 35962 ft | 427 kts | 317° |
| 2026-05-06 17:47 | 44.10392 | 24.83425 | 35959 ft | 427 kts | 317° |
| 2026-05-06 17:48 | 44.14732 | 24.77797 | 35952 ft | 427 kts | 317° |
| 2026-05-06 17:48 | 44.19076 | 24.72159 | 35958 ft | 427 kts | 317° |
| 2026-05-06 17:49 | 44.23416 | 24.66514 | 35970 ft | 427 kts | 317° |
| 2026-05-06 17:49 | 44.27760 | 24.60852 | 35964 ft | 427 kts | 317° |
| 2026-05-06 17:50 | 44.32099 | 24.55186 | 35958 ft | 427 kts | 316° |
| 2026-05-06 17:50 | 44.36439 | 24.49505 | 35959 ft | 427 kts | 316° |
| 2026-05-06 17:51 | 44.40776 | 24.43817 | 35962 ft | 427 kts | 316° |
| 2026-05-06 17:51 | 44.45077 | 24.38162 | 35961 ft | 427 kts | 316° |
| 2026-05-06 17:52 | 44.49437 | 24.32420 | 35959 ft | 427 kts | 316° |
| 2026-05-06 17:52 | 44.53760 | 24.26712 | 35967 ft | 427 kts | 316° |
| 2026-05-06 17:53 | 44.58055 | 24.21030 | 35968 ft | 427 kts | 316° |
| 2026-05-06 17:53 | 44.62377 | 24.15299 | 35967 ft | 428 kts | 316° |
| 2026-05-06 17:54 | 44.66698 | 24.09559 | 35961 ft | 427 kts | 316° |
| 2026-05-06 17:54 | 44.71014 | 24.03813 | 35967 ft | 427 kts | 316° |
| 2026-05-06 17:55 | 44.75328 | 23.98055 | 35965 ft | 428 kts | 316° |
| 2026-05-06 17:55 | 44.79638 | 23.92291 | 35973 ft | 427 kts | 316° |
| 2026-05-06 17:56 | 44.83951 | 23.86512 | 35982 ft | 428 kts | 316° |
| 2026-05-06 17:56 | 44.88257 | 23.80729 | 35968 ft | 428 kts | 315° |
| 2026-05-06 17:57 | 44.92563 | 23.74933 | 35968 ft | 428 kts | 315° |
| 2026-05-06 17:57 | 44.96866 | 23.69128 | 35974 ft | 428 kts | 315° |
| 2026-05-06 17:58 | 45.01167 | 23.63313 | 35980 ft | 428 kts | 315° |
| 2026-05-06 17:58 | 45.05470 | 23.57483 | 35974 ft | 428 kts | 315° |
| 2026-05-06 17:59 | 45.09771 | 23.51643 | 35996 ft | 429 kts | 315° |
| 2026-05-06 17:59 | 45.14073 | 23.45788 | 35999 ft | 429 kts | 315° |
| 2026-05-06 18:00 | 45.18375 | 23.39922 | 36006 ft | 429 kts | 315° |
| 2026-05-06 18:00 | 45.22672 | 23.34048 | 35996 ft | 429 kts | 315° |
| 2026-05-06 18:01 | 45.26963 | 23.28169 | 36003 ft | 429 kts | 315° |
| 2026-05-06 18:01 | 45.31256 | 23.22275 | 36010 ft | 429 kts | 315° |
| 2026-05-06 18:02 | 45.35541 | 23.16380 | 35998 ft | 429 kts | 315° |
| 2026-05-06 18:02 | 45.39819 | 23.10481 | 36011 ft | 427 kts | 315° |
| 2026-05-06 18:03 | 45.44090 | 23.04575 | 35986 ft | 428 kts | 314° |
| 2026-05-06 18:03 | 45.48360 | 22.98661 | 36002 ft | 429 kts | 314° |
| 2026-05-06 18:04 | 45.52608 | 22.92764 | 35994 ft | 429 kts | 314° |
| 2026-05-06 18:04 | 45.56882 | 22.86818 | 35989 ft | 429 kts | 314° |
| 2026-05-06 18:05 | 45.61123 | 22.80904 | 35986 ft | 430 kts | 314° |
| 2026-05-06 18:05 | 45.65400 | 22.74926 | 35987 ft | 430 kts | 314° |
| 2026-05-06 18:06 | 45.69677 | 22.68947 | 35972 ft | 430 kts | 314° |
| 2026-05-06 18:06 | 45.73949 | 22.62945 | 35979 ft | 430 kts | 314° |
| 2026-05-06 18:07 | 45.78218 | 22.56932 | 35960 ft | 430 kts | 314° |
| 2026-05-06 18:07 | 45.82482 | 22.50916 | 35972 ft | 431 kts | 313° |
| 2026-05-06 18:08 | 45.86753 | 22.44878 | 35963 ft | 431 kts | 313° |
| 2026-05-06 18:08 | 45.91027 | 22.38822 | 35958 ft | 432 kts | 313° |
| 2026-05-06 18:09 | 45.95297 | 22.32759 | 35961 ft | 432 kts | 313° |
| 2026-05-06 18:09 | 45.99577 | 22.26667 | 35952 ft | 433 kts | 313° |
| 2026-05-06 18:10 | 46.03852 | 22.20568 | 35961 ft | 433 kts | 313° |
| 2026-05-06 18:10 | 46.08132 | 22.14448 | 35955 ft | 434 kts | 313° |
| 2026-05-06 18:11 | 46.12414 | 22.08312 | 35949 ft | 434 kts | 313° |
| 2026-05-06 18:11 | 46.16688 | 22.02173 | 35944 ft | 434 kts | 313° |
| 2026-05-06 18:12 | 46.20968 | 21.96010 | 35950 ft | 435 kts | 312° |
| 2026-05-06 18:12 | 46.25249 | 21.89831 | 35936 ft | 435 kts | 312° |
| 2026-05-06 18:13 | 46.29531 | 21.83636 | 35945 ft | 436 kts | 312° |
| 2026-05-06 18:13 | 46.33812 | 21.77429 | 35948 ft | 436 kts | 312° |
| 2026-05-06 18:14 | 46.38090 | 21.71211 | 35933 ft | 436 kts | 312° |
| 2026-05-06 18:14 | 46.42369 | 21.64978 | 35936 ft | 436 kts | 312° |
| 2026-05-06 18:15 | 46.46617 | 21.58774 | 35940 ft | 436 kts | 312° |
| 2026-05-06 18:15 | 46.50889 | 21.52520 | 35921 ft | 437 kts | 312° |
| 2026-05-06 18:16 | 46.55161 | 21.46252 | 35926 ft | 437 kts | 311° |
| 2026-05-06 18:16 | 46.59436 | 21.39965 | 35925 ft | 438 kts | 311° |
| 2026-05-06 18:17 | 46.63717 | 21.33653 | 35932 ft | 438 kts | 311° |
| 2026-05-06 18:17 | 46.67998 | 21.27328 | 35920 ft | 439 kts | 311° |
| 2026-05-06 18:18 | 46.72275 | 21.20992 | 35922 ft | 439 kts | 311° |
| 2026-05-06 18:18 | 46.76550 | 21.14645 | 35927 ft | 439 kts | 311° |
| 2026-05-06 18:19 | 46.80831 | 21.08272 | 35913 ft | 439 kts | 311° |
| 2026-05-06 18:19 | 46.85104 | 21.01896 | 35912 ft | 440 kts | 311° |
| 2026-05-06 18:20 | 46.89378 | 20.95504 | 35907 ft | 440 kts | 311° |
| 2026-05-06 18:20 | 46.93650 | 20.89099 | 35913 ft | 440 kts | 311° |
| 2026-05-06 18:21 | 46.97926 | 20.82672 | 35904 ft | 441 kts | 310° |
| 2026-05-06 18:21 | 47.02204 | 20.76226 | 35904 ft | 441 kts | 310° |
| 2026-05-06 18:22 | 47.06479 | 20.69769 | 35901 ft | 442 kts | 310° |
| 2026-05-06 18:22 | 47.10756 | 20.63293 | 35899 ft | 442 kts | 310° |
| 2026-05-06 18:23 | 47.15026 | 20.56812 | 35892 ft | 442 kts | 310° |
| 2026-05-06 18:23 | 47.19296 | 20.50315 | 35887 ft | 442 kts | 310° |
| 2026-05-06 18:24 | 47.23561 | 20.43811 | 35893 ft | 442 kts | 310° |
| 2026-05-06 18:24 | 47.27796 | 20.37334 | 35886 ft | 442 kts | 310° |
| 2026-05-06 18:25 | 47.32051 | 20.30812 | 35887 ft | 441 kts | 310° |
| 2026-05-06 18:25 | 47.36306 | 20.24273 | 35886 ft | 442 kts | 310° |
| 2026-05-06 18:26 | 47.40563 | 20.17714 | 35886 ft | 443 kts | 310° |
| 2026-05-06 18:26 | 47.44822 | 20.11138 | 35885 ft | 443 kts | 310° |
| 2026-05-06 18:27 | 47.49077 | 20.04550 | 35884 ft | 443 kts | 310° |
| 2026-05-06 18:27 | 47.53334 | 19.97943 | 35889 ft | 444 kts | 309° |
| 2026-05-06 18:28 | 47.57596 | 19.91310 | 35893 ft | 445 kts | 309° |
| 2026-05-06 18:28 | 47.61864 | 19.84653 | 35887 ft | 445 kts | 309° |
| 2026-05-06 18:29 | 47.66126 | 19.77987 | 35889 ft | 445 kts | 309° |
| 2026-05-06 18:29 | 47.70388 | 19.71304 | 35887 ft | 446 kts | 309° |
| 2026-05-06 18:30 | 47.74648 | 19.64607 | 35891 ft | 447 kts | 309° |
| 2026-05-06 18:30 | 47.78879 | 19.57940 | 35886 ft | 447 kts | 309° |
| 2026-05-06 18:31 | 47.83147 | 19.51197 | 35886 ft | 448 kts | 309° |
| 2026-05-06 18:31 | 47.87409 | 19.44445 | 35890 ft | 448 kts | 309° |
| 2026-05-06 18:32 | 47.91706 | 19.37617 | 35900 ft | 455 kts | 309° |
| 2026-05-06 18:32 | 47.95318 | 19.31866 | 35884 ft | 457 kts | 309° |
| 2026-05-06 18:33 | 47.98177 | 19.27314 | 35875 ft | 443 kts | 309° |
| 2026-05-06 18:33 | 48.00251 | 19.24003 | 35878 ft | 442 kts | 309° |
| 2026-05-06 18:33 | 48.04456 | 19.17266 | 35890 ft | 446 kts | 308° |
| 2026-05-06 18:34 | 48.08689 | 19.10422 | 35884 ft | 449 kts | 307° |
| 2026-05-06 18:34 | 48.12086 | 19.04537 | 35877 ft | 450 kts | 306° |
| 2026-05-06 18:35 | 48.16129 | 18.97355 | 35874 ft | 451 kts | 306° |
| 2026-05-06 18:35 | 48.20183 | 18.90177 | 35857 ft | 451 kts | 306° |
| 2026-05-06 18:36 | 48.24241 | 18.83021 | 35870 ft | 450 kts | 306° |
| 2026-05-06 18:36 | 48.28296 | 18.75869 | 35852 ft | 449 kts | 306° |
| 2026-05-06 18:37 | 48.32338 | 18.68720 | 35856 ft | 449 kts | 306° |
| 2026-05-06 18:37 | 48.36374 | 18.61563 | 35866 ft | 449 kts | 306° |
| 2026-05-06 18:38 | 48.40406 | 18.54390 | 35836 ft | 449 kts | 306° |
| 2026-05-06 18:38 | 48.44429 | 18.47217 | 35841 ft | 448 kts | 306° |
| 2026-05-06 18:39 | 48.48448 | 18.40031 | 35856 ft | 448 kts | 305° |
| 2026-05-06 18:40 | 48.54459 | 18.29245 | 35812 ft | 447 kts | 305° |
| 2026-05-06 18:40 | 48.58450 | 18.22060 | 35814 ft | 446 kts | 305° |
| 2026-05-06 18:41 | 48.62431 | 18.14874 | 35808 ft | 446 kts | 305° |
| 2026-05-06 18:41 | 48.66403 | 18.07683 | 35832 ft | 446 kts | 304° |
| 2026-05-06 18:42 | 48.70307 | 18.00599 | 35808 ft | 445 kts | 304° |
| 2026-05-06 18:42 | 48.74295 | 17.93339 | 35796 ft | 445 kts | 304° |
| 2026-05-06 18:43 | 48.78244 | 17.86133 | 35801 ft | 444 kts | 304° |
| 2026-05-06 18:43 | 48.82190 | 17.78914 | 35797 ft | 444 kts | 304° |
| 2026-05-06 18:44 | 48.86090 | 17.71646 | 35779 ft | 442 kts | 300° |
| 2026-05-06 18:44 | 48.88959 | 17.63631 | 35791 ft | 433 kts | 290° |
| 2026-05-06 18:45 | 48.91528 | 17.55349 | 35768 ft | 434 kts | 290° |
| 2026-05-06 18:45 | 48.94113 | 17.47057 | 35785 ft | 434 kts | 290° |
| 2026-05-06 18:46 | 48.96719 | 17.38762 | 35765 ft | 434 kts | 290° |
| 2026-05-06 18:46 | 48.99325 | 17.30473 | 35762 ft | 435 kts | 290° |
| 2026-05-06 18:47 | 49.01932 | 17.22160 | 35766 ft | 435 kts | 290° |
| 2026-05-06 18:47 | 49.04529 | 17.13847 | 35751 ft | 435 kts | 290° |
| 2026-05-06 18:48 | 49.07123 | 17.05516 | 35766 ft | 435 kts | 290° |
| 2026-05-06 18:48 | 49.08421 | 17.01335 | 35531 ft | 439 kts | 290° |
| 2026-05-06 18:48 | 49.09725 | 16.97125 | 35150 ft | 439 kts | 290° |
| 2026-05-06 18:48 | 49.11025 | 16.92930 | 34748 ft | 435 kts | 290° |
| 2026-05-06 18:49 | 49.12308 | 16.88783 | 34358 ft | 431 kts | 290° |
| 2026-05-06 18:49 | 49.13586 | 16.84642 | 33976 ft | 430 kts | 290° |
| 2026-05-06 18:49 | 49.14858 | 16.80512 | 33573 ft | 430 kts | 290° |
| 2026-05-06 18:49 | 49.16127 | 16.76380 | 33144 ft | 430 kts | 290° |
| 2026-05-06 18:50 | 49.17398 | 16.72237 | 32716 ft | 431 kts | 290° |
| 2026-05-06 18:50 | 49.18668 | 16.68086 | 32306 ft | 432 kts | 290° |
| 2026-05-06 18:50 | 49.19940 | 16.63927 | 31885 ft | 434 kts | 290° |
| 2026-05-06 18:50 | 49.21218 | 16.59738 | 31507 ft | 436 kts | 289° |
| 2026-05-06 18:51 | 49.22502 | 16.55522 | 31114 ft | 438 kts | 289° |
| 2026-05-06 18:51 | 49.23792 | 16.51282 | 30753 ft | 440 kts | 289° |
| 2026-05-06 18:51 | 49.25080 | 16.47043 | 30510 ft | 439 kts | 289° |
| 2026-05-06 18:51 | 49.26350 | 16.42860 | 30266 ft | 438 kts | 289° |
| 2026-05-06 18:52 | 49.27651 | 16.38567 | 30018 ft | 438 kts | 289° |
| 2026-05-06 18:52 | 49.28932 | 16.34326 | 29772 ft | 439 kts | 289° |
| 2026-05-06 18:52 | 49.30199 | 16.30127 | 29500 ft | 441 kts | 289° |
| 2026-05-06 18:52 | 49.31485 | 16.25855 | 29219 ft | 443 kts | 289° |
| 2026-05-06 18:53 | 49.32776 | 16.21557 | 28970 ft | 445 kts | 289° |
| 2026-05-06 18:53 | 49.34070 | 16.17245 | 28697 ft | 447 kts | 289° |
| 2026-05-06 18:53 | 49.35369 | 16.12908 | 28428 ft | 448 kts | 289° |
| 2026-05-06 18:53 | 49.36671 | 16.08556 | 28147 ft | 449 kts | 289° |
| 2026-05-06 18:54 | 49.37976 | 16.04188 | 27875 ft | 450 kts | 289° |
| 2026-05-06 18:54 | 49.39280 | 15.99816 | 27607 ft | 452 kts | 289° |
| 2026-05-06 18:54 | 49.40588 | 15.95422 | 27348 ft | 452 kts | 289° |
| 2026-05-06 18:54 | 49.41960 | 15.91060 | 27092 ft | 455 kts | 291° |
| 2026-05-06 18:55 | 49.43420 | 15.86733 | 26836 ft | 457 kts | 292° |
| 2026-05-06 18:55 | 49.44913 | 15.82423 | 26610 ft | 458 kts | 292° |
| 2026-05-06 18:55 | 49.46416 | 15.78099 | 26345 ft | 460 kts | 292° |
| 2026-05-06 18:55 | 49.47920 | 15.73744 | 26101 ft | 463 kts | 292° |
| 2026-05-06 18:56 | 49.49425 | 15.69349 | 25852 ft | 466 kts | 292° |
| 2026-05-06 18:56 | 49.50935 | 15.64909 | 25603 ft | 469 kts | 292° |
| 2026-05-06 18:56 | 49.52440 | 15.60463 | 25346 ft | 467 kts | 292° |
| 2026-05-06 18:56 | 49.53937 | 15.56031 | 25117 ft | 466 kts | 292° |
| 2026-05-06 18:57 | 49.55425 | 15.51616 | 24871 ft | 465 kts | 292° |
| 2026-05-06 18:57 | 49.56910 | 15.47196 | 24632 ft | 464 kts | 292° |
| 2026-05-06 18:57 | 49.58390 | 15.42784 | 24423 ft | 463 kts | 292° |
| 2026-05-06 18:57 | 49.59866 | 15.38375 | 24186 ft | 463 kts | 292° |
| 2026-05-06 18:58 | 49.61342 | 15.33960 | 23949 ft | 462 kts | 292° |
| 2026-05-06 18:58 | 49.62820 | 15.29530 | 23724 ft | 467 kts | 292° |
| 2026-05-06 18:58 | 49.64309 | 15.25057 | 23429 ft | 470 kts | 292° |
| 2026-05-06 18:58 | 49.65799 | 15.20580 | 22588 ft | 463 kts | 292° |
| 2026-05-06 18:59 | 49.67250 | 15.16228 | 21856 ft | 452 kts | 292° |
| 2026-05-06 18:59 | 49.68673 | 15.11940 | 21122 ft | 445 kts | 292° |
| 2026-05-06 18:59 | 49.70109 | 15.07747 | 20386 ft | 441 kts | 297° |
| 2026-05-06 18:59 | 49.72108 | 15.04157 | 19799 ft | 445 kts | 315° |
| 2026-05-06 19:00 | 49.74495 | 15.01173 | 19125 ft | 438 kts | 316° |
| 2026-05-06 19:00 | 49.76829 | 14.98184 | 18439 ft | 434 kts | 315° |
| 2026-05-06 19:00 | 49.79123 | 14.95171 | 17698 ft | 429 kts | 315° |
| 2026-05-06 19:00 | 49.81374 | 14.92178 | 16947 ft | 425 kts | 315° |
| 2026-05-06 19:01 | 49.83606 | 14.89203 | 16239 ft | 421 kts | 315° |
| 2026-05-06 19:01 | 49.85811 | 14.86264 | 15536 ft | 417 kts | 315° |
| 2026-05-06 19:01 | 49.87996 | 14.83347 | 14864 ft | 413 kts | 315° |
| 2026-05-06 19:01 | 49.90163 | 14.80450 | 14209 ft | 409 kts | 316° |
| 2026-05-06 19:02 | 49.92312 | 14.77574 | 13539 ft | 406 kts | 316° |
| 2026-05-06 19:02 | 49.94444 | 14.74718 | 13055 ft | 405 kts | 316° |
| 2026-05-06 19:02 | 49.96564 | 14.71875 | 12900 ft | 402 kts | 316° |
| 2026-05-06 19:02 | 49.98634 | 14.69099 | 12777 ft | 381 kts | 316° |
| 2026-05-06 19:03 | 50.00564 | 14.66516 | 12733 ft | 351 kts | 315° |
| 2026-05-06 19:03 | 50.02230 | 14.63978 | 12732 ft | 320 kts | 306° |
| 2026-05-06 19:03 | 50.03540 | 14.61336 | 12728 ft | 299 kts | 302° |
| 2026-05-06 19:03 | 50.04753 | 14.58708 | 12742 ft | 299 kts | 301° |
| 2026-05-06 19:04 | 50.05967 | 14.56090 | 12540 ft | 295 kts | 302° |
| 2026-05-06 19:04 | 50.07177 | 14.53537 | 12176 ft | 291 kts | 302° |
| 2026-05-06 19:04 | 50.08389 | 14.51021 | 11593 ft | 290 kts | 302° |
| 2026-05-06 19:04 | 50.09605 | 14.48515 | 11029 ft | 290 kts | 303° |
| 2026-05-06 19:05 | 50.10827 | 14.45999 | 10591 ft | 292 kts | 303° |
| 2026-05-06 19:05 | 50.12044 | 14.43493 | 10336 ft | 288 kts | 303° |
| 2026-05-06 19:05 | 50.13232 | 14.41048 | 10102 ft | 286 kts | 302° |
| 2026-05-06 19:05 | 50.14447 | 14.38538 | 10043 ft | 289 kts | 302° |
| 2026-05-06 19:06 | 50.15648 | 14.36056 | 10011 ft | 290 kts | 302° |
| 2026-05-06 19:06 | 50.16848 | 14.33580 | 10003 ft | 282 kts | 303° |
| 2026-05-06 19:06 | 50.18005 | 14.31192 | 9991 ft | 270 kts | 303° |
| 2026-05-06 19:06 | 50.19115 | 14.28897 | 9993 ft | 261 kts | 302° |
| 2026-05-06 19:07 | 50.20200 | 14.26648 | 9998 ft | 258 kts | 302° |
| 2026-05-06 19:07 | 50.20930 | 14.25138 | 10008 ft | 259 kts | 304° |
| 2026-05-06 19:07 | 50.22522 | 14.22264 | 10017 ft | 263 kts | 307° |
| 2026-05-06 19:07 | 50.23735 | 14.20172 | 9968 ft | 262 kts | 308° |
| 2026-05-06 19:08 | 50.24973 | 14.18049 | 9793 ft | 260 kts | 308° |
| 2026-05-06 19:08 | 50.26196 | 14.15952 | 9462 ft | 261 kts | 308° |
| 2026-05-06 19:08 | 50.27418 | 14.13848 | 9134 ft | 261 kts | 307° |
| 2026-05-06 19:08 | 50.28583 | 14.11736 | 8841 ft | 260 kts | 306° |
| 2026-05-06 19:09 | 50.29747 | 14.09585 | 8558 ft | 257 kts | 306° |
| 2026-05-06 19:09 | 50.30841 | 14.07409 | 8102 ft | 253 kts | 295° |
| 2026-05-06 19:09 | 50.31300 | 14.04812 | 7599 ft | 247 kts | 266° |
| 2026-05-06 19:09 | 50.30850 | 14.02287 | 7146 ft | 242 kts | 236° |
| 2026-05-06 19:10 | 50.29639 | 14.00595 | 7021 ft | 232 kts | 204° |
| 2026-05-06 19:10 | 50.28048 | 14.00142 | 6679 ft | 241 kts | 177° |
| 2026-05-06 19:10 | 50.26391 | 14.00927 | 5936 ft | 258 kts | 157° |
| 2026-05-06 19:10 | 50.24748 | 14.02178 | 5178 ft | 268 kts | 155° |
| 2026-05-06 19:11 | 50.23085 | 14.03490 | 4732 ft | 265 kts | 155° |
| 2026-05-06 19:11 | 50.21463 | 14.04771 | 4368 ft | 259 kts | 155° |
| 2026-05-06 19:11 | 50.19905 | 14.06059 | 4091 ft | 247 kts | 146° |
| 2026-05-06 19:11 | 50.18750 | 14.07954 | 3796 ft | 236 kts | 126° |
| 2026-05-06 19:12 | 50.17826 | 14.09997 | 3477 ft | 226 kts | 126° |
| 2026-05-06 19:12 | 50.16907 | 14.11919 | 3188 ft | 217 kts | 127° |
| 2026-05-06 19:12 | 50.16013 | 14.13759 | 2905 ft | 208 kts | 126° |
| 2026-05-06 19:12 | 50.15166 | 14.15506 | 2634 ft | 196 kts | 126° |
| 2026-05-06 19:13 | 50.14377 | 14.17136 | 2402 ft | 181 kts | 125° |
| 2026-05-06 19:13 | 50.13649 | 14.18644 | 2165 ft | 167 kts | 125° |
| 2026-05-06 19:13 | 50.12978 | 14.20030 | 1973 ft | 152 kts | 124° |
| 2026-05-06 19:13 | 50.12380 | 14.21268 | 1760 ft | 141 kts | 124° |
| 2026-05-06 19:14 | 50.11794 | 14.22477 | 1609 ft | 140 kts | 125° |
| 2026-05-06 19:14 | 50.11196 | 14.23726 | 1354 ft | 149 kts | 123° |
| 2026-05-06 19:14 | 50.10580 | 14.24989 | 1189 ft | 141 kts | 122° |
| 2026-05-06 19:14 | 50.10045 | 14.26106 | 1193 ft | 108 kts | 127° |
| 2026-05-06 19:15 | 50.09688 | 14.26845 | 1215 ft | 63 kts | 127° |
| 2026-05-06 19:15 | 50.09473 | 14.27289 | 1215 ft | 32 kts | 127° |
| 2026-05-06 19:15 | 50.09424 | 14.27450 | 1217 ft | 10 kts | 49° |
| 2026-05-06 19:15 | 50.09479 | 14.27513 | 1214 ft | 10 kts | 36° |
| 2026-05-06 19:16 | 50.09541 | 14.27581 | 1211 ft | 11 kts | 36° |
| 2026-05-06 19:16 | 50.09595 | 14.27639 | 1208 ft | 7 kts | 31° |
| 2026-05-06 19:16 | 50.09638 | 14.27639 | 1207 ft | 5 kts | 328° |
| 2026-05-06 19:16 | 50.09640 | 14.27637 | 1207 ft | 0 kts | 324° |
| 2026-05-06 19:17 | 50.09652 | 14.27623 | 1206 ft | 8 kts | 321° |
| 2026-05-06 19:17 | 50.09712 | 14.27536 | 1206 ft | 13 kts | 314° |
| 2026-05-06 19:17 | 50.09775 | 14.27438 | 1205 ft | 13 kts | 315° |
| 2026-05-06 19:18 | 50.09837 | 14.27343 | 1204 ft | 12 kts | 315° |
| 2026-05-06 19:18 | 50.09891 | 14.27241 | 1203 ft | 12 kts | 307° |
| 2026-05-06 19:18 | 50.09941 | 14.27138 | 1205 ft | 12 kts | 307° |
| 2026-05-06 19:18 | 50.09989 | 14.27038 | 1204 ft | 11 kts | 308° |
| 2026-05-06 19:19 | 50.10036 | 14.26940 | 1202 ft | 11 kts | 307° |
| 2026-05-06 19:19 | 50.10082 | 14.26846 | 1200 ft | 11 kts | 308° |
| 2026-05-06 19:19 | 50.10129 | 14.26747 | 1197 ft | 14 kts | 306° |
| 2026-05-06 19:19 | 50.10195 | 14.26611 | 1195 ft | 16 kts | 307° |
| 2026-05-06 19:20 | 50.10237 | 14.26522 | 1194 ft | 15 kts | 306° |
| 2026-05-06 19:20 | 50.10300 | 14.26391 | 1191 ft | 15 kts | 307° |
| 2026-05-06 19:20 | 50.10360 | 14.26267 | 1189 ft | 14 kts | 306° |
| 2026-05-06 19:20 | 50.10410 | 14.26163 | 1187 ft | 7 kts | 305° |
| 2026-05-06 19:21 | 50.10445 | 14.26091 | 1185 ft | 10 kts | 308° |
| 2026-05-06 19:21 | 50.10488 | 14.26001 | 1184 ft | 10 kts | 306° |
| 2026-05-06 19:21 | 50.10528 | 14.25971 | 1182 ft | 7 kts | 43° |
| 2026-05-06 19:21 | 50.10583 | 14.26026 | 1175 ft | 13 kts | 30° |
| 2026-05-06 19:22 | 50.10666 | 14.26106 | 1175 ft | 14 kts | 34° |
| 2026-05-06 19:22 | 50.10744 | 14.26189 | 1175 ft | 13 kts | 34° |
| 2026-05-06 19:22 | 50.10819 | 14.26269 | 1174 ft | 13 kts | 34° |
| 2026-05-06 19:22 | 50.10891 | 14.26347 | 1175 ft | 13 kts | 35° |
| 2026-05-06 19:23 | 50.10954 | 14.26415 | 1174 ft | 7 kts | 35° |
| 2026-05-06 19:23 | 50.10971 | 14.26434 | 1172 ft | 0 kts | 36° |
| 2026-05-06 19:23 | 50.10973 | 14.26436 | 1175 ft | 2 kts | 34° |
| 2026-05-06 19:24 | 50.11003 | 14.26468 | 1172 ft | 7 kts | 32° |
| 2026-05-06 19:24 | 50.11033 | 14.26520 | 1172 ft | 7 kts | 94° |
| 2026-05-06 19:24 | 50.11004 | 14.26584 | 1172 ft | 9 kts | 130° |
| 2026-05-06 19:24 | 50.10961 | 14.26661 | 1176 ft | 8 kts | 132° |
| 2026-05-06 19:25 | 50.10932 | 14.26682 | 1171 ft | 5 kts | 191° |
| 2026-05-06 19:25 | 50.10909 | 14.26659 | 1176 ft | 1 kts | 215° |
| 2026-05-06 19:25 | 50.10903 | 14.26653 | 1175 ft | 1 kts | 214° |
| 2026-05-06 19:25 | 50.10899 | 14.26649 | 1173 ft | 0 kts | 214° |
| 2026-05-06 19:26 | 50.10899 | 14.26648 | 1173 ft | 0 kts | 214° |